createdAt,value
2017-05-21T00:10:21.276Z,19.24
2017-05-21T00:11:05.832Z,19.3
2017-05-21T00:12:16.502Z,19.24
2017-05-21T00:13:01.203Z,19.2
2017-05-21T00:14:35.117Z,19.28
2017-05-21T00:14:48.700Z,19.2
2017-05-21T00:15:04.061Z,19.24
2017-05-21T00:16:21.378Z,19.15
2017-05-21T00:17:37.065Z,19.2
2017-05-21T00:19:09.042Z,19.16
2017-05-21T00:19:26.726Z,19.19
2017-05-21T00:21:03.803Z,19.15
2017-05-21T00:22:07.369Z,19.06
2017-05-21T00:23:35.930Z,19.12
2017-05-21T00:25:15.907Z,19.05
2017-05-21T00:25:34.126Z,18.99
2017-05-21T00:26:04.902Z,19.07
2017-05-21T00:27:20.057Z,18.99
2017-05-21T00:28:35.752Z,18.99
2017-05-21T00:30:13.248Z,18.9
2017-05-21T00:30:26.643Z,18.89
2017-05-21T00:30:39.504Z,18.96
2017-05-21T00:31:25.668Z,18.87
2017-05-21T00:32:15.779Z,18.91
2017-05-21T00:32:28.172Z,18.96
2017-05-21T00:32:41.739Z,18.87
2017-05-21T00:33:26.213Z,18.91
2017-05-21T00:34:04.538Z,18.9
2017-05-21T00:34:30.946Z,18.87
2017-05-21T00:35:14.435Z,18.9
2017-05-21T00:36:02.545Z,18.82
2017-05-21T00:37:48.895Z,18.86
2017-05-21T00:38:33.968Z,18.86
2017-05-21T00:40:02.656Z,18.91
2017-05-21T00:42:32.754Z,18.94
2017-05-21T00:44:46.027Z,18.93
2017-05-21T00:46:27.543Z,18.84
2017-05-21T00:47:25.341Z,18.91
2017-05-21T00:48:09.409Z,18.82
2017-05-21T00:50:47.579Z,18.78
2017-05-21T00:52:16.706Z,18.76
2017-05-21T00:53:23.806Z,18.78
2017-05-21T00:53:54.260Z,18.84
2017-05-21T00:54:51.924Z,18.71
2017-05-21T00:56:07.850Z,18.66
2017-05-21T00:57:27.030Z,18.69
2017-05-21T00:58:11.578Z,18.65
2017-05-21T00:59:25.373Z,18.6
2017-05-21T01:00:45.941Z,18.59
2017-05-21T01:02:04.440Z,18.56
2017-05-21T01:02:30.096Z,18.56
2017-05-21T01:03:14.704Z,18.51
2017-05-21T01:04:45.381Z,18.59
2017-05-21T01:05:33.237Z,18.56
2017-05-21T01:05:47.516Z,18.56
2017-05-21T01:07:10.049Z,18.5
2017-05-21T01:07:41.097Z,18.49
2017-05-21T01:10:22.444Z,18.59
2017-05-21T01:13:20.995Z,18.68
2017-05-21T01:14:10.104Z,18.87
2017-05-21T01:15:26.345Z,18.97
2017-05-21T01:16:41.487Z,19.13
2017-05-21T01:17:26.021Z,19
2017-05-21T01:20:42.944Z,19.23
2017-05-21T01:21:34.824Z,19.27
2017-05-21T01:22:50.483Z,19.23
2017-05-21T01:23:05.128Z,19.25
2017-05-21T01:24:17.359Z,19.16
2017-05-21T01:25:21.699Z,19.23
2017-05-21T01:26:49.685Z,19.23
2017-05-21T01:28:08.901Z,19.17
2017-05-21T01:30:09.420Z,19.05
2017-05-21T01:33:38.658Z,18.84
2017-05-21T01:33:52.096Z,18.87
2017-05-21T01:34:36.643Z,18.81
2017-05-21T01:35:46.860Z,18.79
2017-05-21T01:36:59.385Z,18.65
2017-05-21T01:39:39.306Z,18.71
2017-05-21T01:40:23.412Z,18.69
2017-05-21T01:41:42.230Z,18.71
2017-05-21T01:42:27.207Z,18.61
2017-05-21T01:43:38.107Z,18.54
2017-05-21T01:44:55.027Z,18.56
2017-05-21T01:45:53.239Z,18.71
2017-05-21T01:47:54.506Z,18.87
2017-05-21T01:51:45.377Z,19.06
2017-05-21T01:52:28.916Z,19
2017-05-21T01:53:25.735Z,19
2017-05-21T01:54:41.408Z,18.93
2017-05-21T01:55:05.792Z,18.96
2017-05-21T01:56:09.430Z,18.94
2017-05-21T01:56:27.680Z,18.91
2017-05-21T01:57:27.002Z,18.97
2017-05-21T01:59:26.732Z,18.94
2017-05-21T02:00:42.308Z,18.86
2017-05-21T02:01:00.940Z,18.93
2017-05-21T02:02:38.639Z,18.79
2017-05-21T02:03:30.374Z,18.72
2017-05-21T02:04:14.828Z,18.75
2017-05-21T02:05:02.659Z,18.68
2017-05-21T02:07:45.452Z,18.61
2017-05-21T02:09:17.745Z,18.49
2017-05-21T02:10:05.700Z,18.47
2017-05-21T02:11:23.028Z,18.47
2017-05-21T02:11:55.190Z,18.47
2017-05-21T02:13:25.194Z,18.44
2017-05-21T02:14:09.145Z,18.49
2017-05-21T02:15:24.291Z,18.41
2017-05-21T02:15:37.947Z,18.44
2017-05-21T02:16:25.599Z,18.59
2017-05-21T02:17:01.450Z,18.56
2017-05-21T02:19:38.924Z,18.9
2017-05-21T02:20:23.523Z,18.86
2017-05-21T02:21:09.276Z,18.94
2017-05-21T02:22:38.003Z,18.97
2017-05-21T02:24:54.308Z,18.96
2017-05-21T02:27:05.579Z,19.02
2017-05-21T02:27:55.563Z,19.09
2017-05-21T02:28:39.832Z,18.99
2017-05-21T02:29:23.882Z,19.02
2017-05-21T02:29:45.876Z,18.94
2017-05-21T02:30:38.294Z,18.94
2017-05-21T02:31:26.697Z,18.94
2017-05-21T02:33:13.634Z,18.76
2017-05-21T02:35:28.811Z,18.57
2017-05-21T02:36:13.365Z,18.59
2017-05-21T02:37:24.129Z,18.57
2017-05-21T02:38:20.287Z,18.44
2017-05-21T02:40:53.311Z,18.45
2017-05-21T02:56:55.573Z,18.44
2017-05-21T02:58:25.585Z,18.63
2017-05-21T02:59:15.435Z,18.6
2017-05-21T02:59:39.486Z,18.6
2017-05-21T03:01:01.567Z,18.54
2017-05-21T03:01:27.717Z,18.5
2017-05-21T03:02:11.219Z,18.44
2017-05-21T03:03:17.115Z,18.42
2017-05-21T03:04:01.764Z,18.42
2017-05-21T03:04:47.060Z,18.36
2017-05-21T03:05:34.641Z,18.45
2017-05-21T03:06:53.362Z,18.34
2017-05-21T03:07:06.811Z,18.31
2017-05-21T03:07:23.890Z,18.27
2017-05-21T03:08:39.128Z,18.32
2017-05-21T03:09:23.912Z,18.29
2017-05-21T03:10:11.372Z,18.27
2017-05-21T03:11:58.941Z,18.23
2017-05-21T03:12:14.897Z,18.27
2017-05-21T03:13:12.122Z,18.21
2017-05-21T03:13:24.322Z,18.2
2017-05-21T03:13:38.219Z,18.27
2017-05-21T03:15:19.876Z,18.17
2017-05-21T03:16:10.021Z,18.21
2017-05-21T03:16:23.692Z,18.23
2017-05-21T03:16:53.662Z,18.24
2017-05-21T03:18:09.369Z,18.19
2017-05-21T03:19:24.580Z,18.19
2017-05-21T03:22:26.074Z,18.23
2017-05-21T03:38:17.551Z,18.11
2017-05-21T03:39:32.687Z,18.16
2017-05-21T03:39:44.829Z,18.2
2017-05-21T03:40:43.714Z,18.17
2017-05-21T03:41:43.335Z,18.14
2017-05-21T03:42:59.313Z,18.14
2017-05-21T03:43:13.045Z,18.17
2017-05-21T03:44:59.868Z,18.17
2017-05-21T03:45:43.887Z,18.2
2017-05-21T03:45:57.394Z,18.16
2017-05-21T03:49:50.661Z,18.11
2017-05-21T03:50:35.264Z,18.16
2017-05-21T03:51:19.721Z,18.26
2017-05-21T03:51:32.622Z,18.31
2017-05-21T03:51:56.030Z,18.35
2017-05-21T03:53:17.003Z,18.42
2017-05-21T03:53:49.748Z,18.47
2017-05-21T03:54:04.725Z,18.42
2017-05-21T03:54:17.051Z,18.39
2017-05-21T03:54:45.927Z,18.39
2017-05-21T03:54:59.535Z,18.42
2017-05-21T03:56:15.310Z,18.38
2017-05-21T03:56:28.728Z,18.38
2017-05-21T03:57:44.078Z,18.45
2017-05-21T03:58:10.300Z,18.39
2017-05-21T03:58:55.051Z,18.38
2017-05-21T03:59:08.466Z,18.41
2017-05-21T03:59:34.103Z,18.41
2017-05-21T03:59:46.050Z,18.49
2017-05-21T04:00:40.403Z,18.38
2017-05-21T04:01:12.838Z,18.36
2017-05-21T04:01:25.762Z,18.47
2017-05-21T04:01:42.271Z,18.38
2017-05-21T04:02:25.993Z,18.42
2017-05-21T04:03:16.309Z,18.41
2017-05-21T04:04:00.905Z,18.44
2017-05-21T04:04:45.473Z,18.35
2017-05-21T04:04:58.840Z,18.29
2017-05-21T04:05:11.794Z,18.34
2017-05-21T04:05:25.134Z,18.34
2017-05-21T04:05:37.504Z,18.36
2017-05-21T04:06:21.600Z,18.23
2017-05-21T04:06:36.687Z,18.23
2017-05-21T04:06:50.163Z,18.32
2017-05-21T04:07:36.141Z,18.2
2017-05-21T04:08:20.177Z,18.14
2017-05-21T04:09:17.044Z,18.13
2017-05-21T04:10:20.649Z,18.14
2017-05-21T04:10:33.863Z,18.13
2017-05-21T04:10:46.318Z,18.19
2017-05-21T04:10:59.695Z,18.08
2017-05-21T04:11:16.075Z,18.14
2017-05-21T04:11:29.114Z,18.14
2017-05-21T04:11:42.025Z,18.16
2017-05-21T04:11:55.518Z,18.19
2017-05-21T04:12:40.431Z,18.13
2017-05-21T04:12:53.307Z,18.1
2017-05-21T04:13:22.830Z,18.1
2017-05-21T04:13:46.231Z,18.05
2017-05-21T04:14:01.603Z,18.13
2017-05-21T04:14:13.959Z,18.08
2017-05-21T04:14:27.611Z,18.01
2017-05-21T04:16:47.598Z,18.05
2017-05-21T04:17:57.307Z,18.01
2017-05-21T04:18:11.392Z,18.02
2017-05-21T04:18:23.772Z,18.01
2017-05-21T04:18:47.157Z,18.1
2017-05-21T04:19:36.998Z,17.99
2017-05-21T04:20:21.535Z,17.99
2017-05-21T04:20:34.919Z,18.06
2017-05-21T04:20:48.315Z,17.99
2017-05-21T04:21:01.256Z,17.99
2017-05-21T04:21:45.838Z,17.99
2017-05-21T04:22:31.115Z,18.11
2017-05-21T04:22:44.520Z,18.13
2017-05-21T04:23:05.970Z,18.16
2017-05-21T04:23:50.557Z,18.21
2017-05-21T04:24:22.560Z,18.29
2017-05-21T04:25:19.879Z,18.27
2017-05-21T04:26:04.821Z,18.31
2017-05-21T04:26:20.220Z,18.34
2017-05-21T04:26:33.859Z,18.34
2017-05-21T04:26:54.202Z,18.29
2017-05-21T04:27:06.753Z,18.29
2017-05-21T04:27:20.182Z,18.24
2017-05-21T04:27:34.067Z,18.26
2017-05-21T04:27:48.449Z,18.27
2017-05-21T04:28:22.663Z,18.31
2017-05-21T04:28:59.242Z,18.17
2017-05-21T04:29:13.361Z,18.24
2017-05-21T04:29:31.514Z,18.24
2017-05-21T04:30:22.368Z,18.19
2017-05-21T04:31:12.255Z,18.2
2017-05-21T04:31:24.556Z,18.21
2017-05-21T04:32:44.733Z,18.23
2017-05-21T04:33:09.453Z,18.26
2017-05-21T04:33:53.710Z,18.23
2017-05-21T04:34:06.568Z,18.29
2017-05-21T04:34:34.741Z,18.31
2017-05-21T04:35:18.765Z,18.23
2017-05-21T04:35:32.105Z,18.29
2017-05-21T04:35:44.477Z,18.35
2017-05-21T04:36:09.819Z,18.31
2017-05-21T04:36:22.154Z,18.24
2017-05-21T04:36:34.994Z,18.31
2017-05-21T04:36:51.412Z,18.27
2017-05-21T04:37:08.687Z,18.24
2017-05-21T04:37:28.557Z,18.2
2017-05-21T04:37:44.239Z,18.27
2017-05-21T04:37:58.319Z,18.21
2017-05-21T04:38:11.787Z,18.19
2017-05-21T04:38:24.736Z,18.19
2017-05-21T04:39:46.794Z,18.13
2017-05-21T04:40:04.338Z,18.11
2017-05-21T04:40:22.366Z,18.13
2017-05-21T04:40:34.756Z,18.17
2017-05-21T04:40:50.993Z,18.19
2017-05-21T04:41:04.407Z,18.13
2017-05-21T04:41:29.321Z,18.13
2017-05-21T04:41:42.899Z,18.13
2017-05-21T04:41:56.365Z,18.14
2017-05-21T04:42:18.566Z,18.17
2017-05-21T04:42:30.997Z,18.13
2017-05-21T04:42:46.945Z,18.08
2017-05-21T04:43:00.351Z,18.02
2017-05-21T04:43:15.292Z,18.05
2017-05-21T04:43:37.919Z,18.06
2017-05-21T04:43:51.374Z,18.06
2017-05-21T04:44:04.255Z,18.08
2017-05-21T04:44:17.846Z,18.08
2017-05-21T04:44:30.909Z,18.06
2017-05-21T04:44:47.577Z,18.05
2017-05-21T04:45:00.939Z,18.11
2017-05-21T04:45:14.045Z,17.96
2017-05-21T04:45:29.872Z,18.06
2017-05-21T04:45:46.770Z,18.03
2017-05-21T04:46:03.208Z,18.06
2017-05-21T04:46:16.642Z,18.03
2017-05-21T04:46:30.110Z,18.01
2017-05-21T04:46:43.570Z,18.03
2017-05-21T04:46:58.198Z,18.03
2017-05-21T04:47:11.134Z,18.03
2017-05-21T04:47:26.076Z,18.01
2017-05-21T04:48:14.938Z,17.99
2017-05-21T04:48:29.710Z,18.05
2017-05-21T04:48:45.104Z,18.02
2017-05-21T04:48:57.932Z,17.98
2017-05-21T04:49:11.384Z,18.02
2017-05-21T04:49:24.268Z,17.99
2017-05-21T04:49:41.314Z,17.95
2017-05-21T04:49:56.234Z,18.01
2017-05-21T04:50:11.126Z,18.06
2017-05-21T04:50:33.730Z,18.01
2017-05-21T04:50:46.878Z,17.98
2017-05-21T04:51:00.552Z,18.05
2017-05-21T04:51:22.180Z,18.06
2017-05-21T04:51:35.479Z,18.01
2017-05-21T04:51:48.279Z,17.98
2017-05-21T04:52:02.515Z,18.06
2017-05-21T04:52:15.374Z,17.98
2017-05-21T04:52:34.043Z,18.11
2017-05-21T04:52:47.490Z,18.05
2017-05-21T04:53:11.595Z,18.16
2017-05-21T04:53:26.028Z,18.1
2017-05-21T04:53:44.043Z,18.16
2017-05-21T04:54:05.013Z,18.1
2017-05-21T04:54:17.119Z,18.08
2017-05-21T04:54:30.000Z,18.14
2017-05-21T04:54:42.919Z,18.1
2017-05-21T04:54:58.875Z,18.08
2017-05-21T04:55:12.291Z,18.14
2017-05-21T04:55:24.638Z,18.16
2017-05-21T04:55:38.295Z,18.11
2017-05-21T04:55:52.597Z,18.17
2017-05-21T04:56:08.002Z,18.1
2017-05-21T04:56:19.871Z,18.19
2017-05-21T04:56:32.371Z,18.1
2017-05-21T04:56:45.850Z,18.1
2017-05-21T04:56:59.475Z,18.14
2017-05-21T04:57:13.595Z,18.13
2017-05-21T04:57:26.978Z,18.08
2017-05-21T04:57:40.311Z,18.17
2017-05-21T04:57:58.046Z,18.1
2017-05-21T04:58:11.490Z,18.17
2017-05-21T04:58:23.910Z,18.11
2017-05-21T04:58:37.324Z,18.13
2017-05-21T04:58:50.391Z,18.05
2017-05-21T04:59:03.786Z,18.08
2017-05-21T04:59:16.189Z,18.1
2017-05-21T04:59:29.114Z,18.11
2017-05-21T04:59:42.076Z,18.13
2017-05-21T04:59:54.979Z,18.19
2017-05-21T05:00:08.400Z,18.19
2017-05-21T05:00:21.396Z,18.14
2017-05-21T05:00:35.605Z,18.16
2017-05-21T05:00:48.789Z,18.11
2017-05-21T05:01:04.683Z,18.11
2017-05-21T05:01:19.363Z,18.16
2017-05-21T05:01:32.472Z,18.2
2017-05-21T05:01:45.899Z,18.16
2017-05-21T05:01:58.822Z,18.11
2017-05-21T05:02:12.239Z,18.16
2017-05-21T05:02:26.491Z,18.08
2017-05-21T05:02:39.679Z,18.17
2017-05-21T05:02:53.077Z,18.11
2017-05-21T05:03:07.249Z,18.21
2017-05-21T05:03:20.654Z,18.16
2017-05-21T05:03:34.117Z,18.21
2017-05-21T05:03:47.540Z,18.08
2017-05-21T05:04:00.968Z,18.11
2017-05-21T05:04:13.341Z,18.16
2017-05-21T05:04:25.710Z,18.08
2017-05-21T05:04:39.141Z,18.19
2017-05-21T05:04:52.074Z,18.17
2017-05-21T05:05:05.483Z,18.1
2017-05-21T05:05:18.903Z,18.08
2017-05-21T05:05:31.323Z,18.16
2017-05-21T05:05:44.768Z,18.14
2017-05-21T05:05:56.671Z,18.1
2017-05-21T05:06:10.121Z,18.03
2017-05-21T05:06:22.535Z,18.1
2017-05-21T05:06:35.412Z,18.1
2017-05-21T05:06:47.779Z,18.13
2017-05-21T05:07:01.274Z,18.03
2017-05-21T05:07:13.693Z,18.01
2017-05-21T05:07:25.514Z,18.1
2017-05-21T05:07:38.921Z,18.03
2017-05-21T05:07:52.307Z,18.05
2017-05-21T05:08:05.332Z,18.06
2017-05-21T05:08:17.810Z,18.06
2017-05-21T05:08:31.365Z,17.98
2017-05-21T05:08:44.855Z,18.06
2017-05-21T05:08:58.275Z,18.05
2017-05-21T05:09:11.750Z,18.08
2017-05-21T05:09:25.181Z,18.06
2017-05-21T05:09:37.547Z,17.98
2017-05-21T05:09:50.474Z,18.01
2017-05-21T05:10:03.859Z,18.03
2017-05-21T05:10:17.295Z,18.05
2017-05-21T05:10:29.693Z,18.02
2017-05-21T05:10:42.521Z,18.01
2017-05-21T05:10:55.988Z,17.99
2017-05-21T05:11:08.390Z,18.02
2017-05-21T05:11:21.808Z,18.08
2017-05-21T05:11:34.687Z,18.1
2017-05-21T05:11:47.259Z,17.95
2017-05-21T05:12:00.703Z,18.02
2017-05-21T05:12:13.084Z,18.01
2017-05-21T05:12:26.015Z,18.03
2017-05-21T05:12:38.385Z,18.02
2017-05-21T05:12:50.812Z,18.02
2017-05-21T05:13:03.730Z,17.96
2017-05-21T05:13:17.190Z,18.02
2017-05-21T05:13:30.062Z,18.01
2017-05-21T05:13:42.925Z,17.98
2017-05-21T05:13:56.420Z,18.02
2017-05-21T05:14:09.292Z,17.99
2017-05-21T05:14:21.657Z,17.96
2017-05-21T05:14:33.998Z,18.03
2017-05-21T05:14:47.363Z,18.03
2017-05-21T05:15:00.878Z,17.99
2017-05-21T05:15:14.261Z,17.96
2017-05-21T05:15:27.120Z,18.01
2017-05-21T05:15:40.038Z,17.98
2017-05-21T05:15:53.457Z,18.01
2017-05-21T05:16:06.865Z,17.99
2017-05-21T05:16:20.321Z,17.99
2017-05-21T05:16:32.673Z,17.94
2017-05-21T05:16:46.067Z,17.98
2017-05-21T05:16:59.515Z,17.99
2017-05-21T05:17:12.915Z,17.99
2017-05-21T05:17:25.763Z,17.99
2017-05-21T05:17:38.726Z,18.02
2017-05-21T05:17:51.140Z,17.95
2017-05-21T05:18:04.570Z,17.99
2017-05-21T05:18:16.467Z,17.98
2017-05-21T05:18:29.868Z,18.01
2017-05-21T05:18:42.743Z,18.02
2017-05-21T05:18:56.195Z,17.99
2017-05-21T05:19:09.109Z,18.03
2017-05-21T05:19:21.956Z,18.02
2017-05-21T05:19:35.431Z,17.98
2017-05-21T05:19:47.813Z,17.98
2017-05-21T05:20:01.222Z,18.05
2017-05-21T05:20:13.587Z,18.05
2017-05-21T05:20:25.935Z,17.99
2017-05-21T05:20:38.890Z,18.02
2017-05-21T05:20:51.755Z,17.99
2017-05-21T05:21:05.195Z,18.01
2017-05-21T05:21:18.039Z,18.05
2017-05-21T05:21:30.416Z,18.05
2017-05-21T05:21:42.816Z,17.99
2017-05-21T05:21:56.206Z,17.95
2017-05-21T05:22:09.695Z,17.98
2017-05-21T05:22:23.066Z,18.05
2017-05-21T05:22:36.010Z,18.01
2017-05-21T05:22:49.422Z,18.03
2017-05-21T05:23:02.858Z,18.01
2017-05-21T05:23:15.855Z,17.96
2017-05-21T05:23:28.724Z,18.06
2017-05-21T05:23:41.049Z,18.06
2017-05-21T05:23:54.401Z,18.06
2017-05-21T05:24:07.232Z,18.06
2017-05-21T05:24:20.196Z,18.05
2017-05-21T05:24:33.650Z,17.95
2017-05-21T05:24:45.543Z,17.99
2017-05-21T05:24:58.446Z,18.01
2017-05-21T05:25:11.846Z,17.99
2017-05-21T05:25:24.717Z,17.99
2017-05-21T05:25:37.076Z,18.02
2017-05-21T05:25:49.930Z,18.02
2017-05-21T05:26:03.391Z,18.05
2017-05-21T05:26:16.269Z,18.06
2017-05-21T05:26:29.682Z,18.01
2017-05-21T05:26:42.771Z,17.96
2017-05-21T05:26:56.206Z,18.01
2017-05-21T05:27:09.161Z,18.08
2017-05-21T05:27:22.101Z,17.99
2017-05-21T05:27:35.546Z,18.1
2017-05-21T05:27:47.959Z,18.16
2017-05-21T05:28:01.379Z,18.06
2017-05-21T05:28:14.717Z,18.13
2017-05-21T05:28:27.172Z,18.16
2017-05-21T05:28:39.559Z,18.11
2017-05-21T05:28:52.909Z,18.1
2017-05-21T05:29:06.319Z,18.02
2017-05-21T05:29:18.798Z,18.05
2017-05-21T05:29:32.183Z,18.05
2017-05-21T05:29:45.087Z,18.06
2017-05-21T05:29:57.485Z,18.13
2017-05-21T05:30:10.480Z,18.11
2017-05-21T05:30:23.922Z,18.14
2017-05-21T05:30:36.326Z,18.11
2017-05-21T05:30:49.262Z,18.13
2017-05-21T05:31:02.155Z,18.14
2017-05-21T05:31:15.496Z,18.16
2017-05-21T05:31:28.468Z,18.1
2017-05-21T05:31:40.801Z,18.14
2017-05-21T05:31:53.661Z,18.11
2017-05-21T05:32:07.106Z,18.11
2017-05-21T05:32:20.531Z,18.19
2017-05-21T05:32:34.029Z,18.2
2017-05-21T05:32:46.931Z,18.19
2017-05-21T05:32:59.838Z,18.2
2017-05-21T05:33:13.278Z,18.23
2017-05-21T05:33:25.631Z,18.26
2017-05-21T05:33:38.536Z,18.27
2017-05-21T05:33:51.445Z,18.24
2017-05-21T05:34:04.307Z,18.31
2017-05-21T05:34:17.247Z,18.34
2017-05-21T05:34:30.668Z,18.38
2017-05-21T05:34:44.089Z,18.35
2017-05-21T05:34:57.521Z,18.42
2017-05-21T05:35:10.545Z,18.38
2017-05-21T05:35:23.469Z,18.44
2017-05-21T05:35:36.322Z,18.49
2017-05-21T05:35:49.191Z,18.42
2017-05-21T05:36:02.141Z,18.41
2017-05-21T05:36:15.087Z,18.44
2017-05-21T05:36:27.422Z,18.42
2017-05-21T05:36:39.800Z,18.49
2017-05-21T05:36:53.159Z,18.45
2017-05-21T05:37:05.533Z,18.38
2017-05-21T05:37:17.326Z,18.41
2017-05-21T05:37:30.220Z,18.45
2017-05-21T05:37:43.579Z,18.41
2017-05-21T05:37:56.474Z,18.45
2017-05-21T05:38:09.903Z,18.41
2017-05-21T05:38:23.320Z,18.39
2017-05-21T05:38:36.672Z,18.44
2017-05-21T05:38:50.165Z,18.41
2017-05-21T05:39:03.139Z,18.41
2017-05-21T05:39:15.564Z,18.44
2017-05-21T05:39:28.445Z,18.38
2017-05-21T05:39:40.861Z,18.44
2017-05-21T05:39:54.300Z,18.36
2017-05-21T05:40:06.674Z,18.44
2017-05-21T05:40:19.619Z,18.36
2017-05-21T05:40:32.577Z,18.32
2017-05-21T05:40:45.500Z,18.36
2017-05-21T05:40:57.945Z,18.36
2017-05-21T05:41:11.377Z,18.29
2017-05-21T05:41:23.195Z,18.32
2017-05-21T05:41:36.114Z,18.31
2017-05-21T05:41:48.969Z,18.31
2017-05-21T05:42:02.706Z,18.26
2017-05-21T05:42:15.127Z,18.26
2017-05-21T05:42:28.050Z,18.27
2017-05-21T05:42:41.003Z,18.24
2017-05-21T05:42:54.500Z,18.27
2017-05-21T05:43:07.915Z,18.19
2017-05-21T05:43:20.779Z,18.26
2017-05-21T05:43:32.671Z,18.17
2017-05-21T05:43:45.595Z,18.17
2017-05-21T05:43:58.467Z,18.16
2017-05-21T05:44:11.921Z,18.14
2017-05-21T05:44:24.788Z,18.19
2017-05-21T05:44:37.156Z,18.13
2017-05-21T05:44:50.651Z,18.13
2017-05-21T05:45:04.037Z,18.14
2017-05-21T05:45:17.520Z,18.17
2017-05-21T05:45:30.418Z,18.14
2017-05-21T05:45:43.821Z,18.14
2017-05-21T05:45:57.229Z,18.16
2017-05-21T05:46:10.086Z,18.08
2017-05-21T05:46:23.479Z,18.13
2017-05-21T05:46:36.443Z,18.11
2017-05-21T05:46:49.318Z,18.08
2017-05-21T05:47:02.803Z,18.05
2017-05-21T05:47:16.224Z,18.03
2017-05-21T05:47:29.703Z,17.99
2017-05-21T05:47:42.083Z,17.98
2017-05-21T05:47:55.539Z,18.03
2017-05-21T05:48:08.925Z,17.99
2017-05-21T05:48:20.780Z,18.02
2017-05-21T05:48:33.716Z,17.98
2017-05-21T05:48:46.080Z,17.98
2017-05-21T05:48:59.589Z,18.05
2017-05-21T05:49:13.001Z,17.96
2017-05-21T05:49:24.910Z,17.98
2017-05-21T05:49:37.767Z,18.01
2017-05-21T05:49:50.638Z,17.99
2017-05-21T05:50:03.581Z,18.05
2017-05-21T05:50:16.036Z,18.01
2017-05-21T05:50:28.407Z,18.02
2017-05-21T05:50:41.849Z,17.94
2017-05-21T05:50:55.195Z,17.96
2017-05-21T05:51:08.075Z,17.98
2017-05-21T05:51:21.477Z,18.01
2017-05-21T05:51:33.826Z,17.99
2017-05-21T05:51:46.757Z,17.98
2017-05-21T05:52:00.203Z,17.96
2017-05-21T05:52:12.551Z,17.94
2017-05-21T05:52:24.947Z,17.95
2017-05-21T05:52:37.784Z,17.92
2017-05-21T05:52:50.634Z,17.94
2017-05-21T05:53:04.015Z,17.95
2017-05-21T05:53:17.417Z,17.94
2017-05-21T05:53:29.744Z,17.98
2017-05-21T05:53:42.066Z,18.01
2017-05-21T05:53:54.979Z,17.94
2017-05-21T05:54:08.383Z,17.99
2017-05-21T05:54:20.806Z,17.95
2017-05-21T05:54:33.706Z,17.94
2017-05-21T05:54:46.636Z,17.92
2017-05-21T05:54:59.530Z,17.92
2017-05-21T05:55:12.909Z,17.99
2017-05-21T05:55:26.378Z,18.01
2017-05-21T05:55:39.226Z,17.98
2017-05-21T05:55:52.590Z,17.95
2017-05-21T05:56:05.986Z,17.95
2017-05-21T05:56:18.860Z,17.92
2017-05-21T05:56:30.671Z,17.94
2017-05-21T05:56:42.978Z,17.92
2017-05-21T05:56:56.418Z,18.01
2017-05-21T05:57:09.414Z,17.96
2017-05-21T05:57:21.309Z,18.05
2017-05-21T05:57:34.725Z,17.96
2017-05-21T05:57:47.663Z,17.94
2017-05-21T05:58:01.112Z,18.02
2017-05-21T05:58:13.977Z,18.05
2017-05-21T05:58:25.847Z,17.96
2017-05-21T05:58:38.694Z,17.87
2017-05-21T05:58:51.027Z,18.05
2017-05-21T05:59:04.391Z,17.99
2017-05-21T05:59:17.820Z,18.01
2017-05-21T05:59:30.257Z,18.02
2017-05-21T05:59:42.130Z,17.95
2017-05-21T05:59:55.537Z,17.98
2017-05-21T06:00:09.029Z,17.94
2017-05-21T06:00:21.475Z,17.92
2017-05-21T06:00:34.388Z,17.96
2017-05-21T06:00:47.364Z,17.96
2017-05-21T06:01:00.788Z,17.95
2017-05-21T06:01:14.125Z,17.98
2017-05-21T06:01:26.955Z,17.95
2017-05-21T06:01:39.305Z,17.87
2017-05-21T06:01:52.141Z,17.86
2017-05-21T06:02:05.596Z,17.84
2017-05-21T06:02:17.402Z,17.83
2017-05-21T06:02:30.295Z,17.92
2017-05-21T06:02:41.639Z,17.83
2017-05-21T06:02:55.057Z,17.86
2017-05-21T06:03:08.416Z,17.84
2017-05-21T06:03:21.225Z,17.83
2017-05-21T06:03:34.095Z,17.81
2017-05-21T06:03:46.489Z,17.84
2017-05-21T06:03:59.931Z,17.86
2017-05-21T06:04:12.884Z,17.81
2017-05-21T06:04:25.723Z,17.77
2017-05-21T06:04:38.557Z,17.79
2017-05-21T06:04:51.946Z,17.88
2017-05-21T06:05:05.322Z,17.77
2017-05-21T06:05:18.716Z,17.94
2017-05-21T06:05:31.611Z,17.84
2017-05-21T06:05:43.926Z,17.95
2017-05-21T06:05:57.464Z,17.81
2017-05-21T06:06:10.904Z,17.96
2017-05-21T06:06:22.778Z,17.98
2017-05-21T06:06:35.648Z,17.9
2017-05-21T06:06:48.516Z,17.98
2017-05-21T06:07:01.369Z,17.84
2017-05-21T06:07:14.250Z,17.77
2017-05-21T06:07:27.197Z,17.92
2017-05-21T06:07:40.659Z,17.83
2017-05-21T06:07:54.083Z,17.87
2017-05-21T06:08:07.482Z,17.86
2017-05-21T06:08:19.338Z,17.88
2017-05-21T06:08:31.196Z,17.81
2017-05-21T06:08:44.533Z,17.83
2017-05-21T06:08:57.937Z,17.8
2017-05-21T06:09:11.353Z,17.83
2017-05-21T06:09:23.711Z,17.88
2017-05-21T06:09:36.660Z,17.83
2017-05-21T06:09:49.585Z,17.77
2017-05-21T06:10:02.969Z,17.81
2017-05-21T06:10:15.889Z,17.8
2017-05-21T06:10:28.873Z,17.8
2017-05-21T06:10:41.780Z,17.83
2017-05-21T06:10:55.218Z,17.83
2017-05-21T06:11:08.106Z,17.83
2017-05-21T06:11:20.482Z,17.79
2017-05-21T06:11:33.373Z,17.77
2017-05-21T06:11:45.759Z,17.77
2017-05-21T06:11:58.662Z,17.77
2017-05-21T06:12:12.414Z,17.79
2017-05-21T06:12:24.835Z,17.8
2017-05-21T06:12:38.212Z,17.87
2017-05-21T06:12:51.607Z,17.83
2017-05-21T06:13:05.045Z,17.83
2017-05-21T06:13:18.406Z,17.76
2017-05-21T06:13:31.278Z,17.83
2017-05-21T06:13:44.122Z,17.76
2017-05-21T06:13:57.044Z,17.77
2017-05-21T06:14:10.574Z,17.81
2017-05-21T06:14:23.455Z,17.81
2017-05-21T06:14:36.345Z,17.8
2017-05-21T06:14:49.290Z,17.8
2017-05-21T06:15:02.709Z,17.79
2017-05-21T06:15:15.544Z,17.81
2017-05-21T06:15:27.973Z,17.81
2017-05-21T06:15:40.337Z,17.81
2017-05-21T06:15:53.740Z,17.79
2017-05-21T06:16:07.083Z,17.76
2017-05-21T06:16:20.003Z,17.76
2017-05-21T06:16:32.819Z,17.73
2017-05-21T06:16:45.247Z,17.79
2017-05-21T06:16:58.670Z,17.81
2017-05-21T06:17:12.202Z,17.69
2017-05-21T06:17:24.565Z,17.74
2017-05-21T06:17:37.568Z,17.83
2017-05-21T06:17:50.968Z,17.74
2017-05-21T06:18:04.413Z,17.83
2017-05-21T06:18:17.281Z,17.76
2017-05-21T06:18:30.173Z,17.69
2017-05-21T06:18:42.505Z,17.71
2017-05-21T06:18:55.416Z,17.77
2017-05-21T06:19:08.272Z,17.76
2017-05-21T06:19:21.663Z,17.71
2017-05-21T06:19:34.472Z,17.77
2017-05-21T06:19:46.836Z,17.73
2017-05-21T06:20:00.189Z,17.71
2017-05-21T06:20:13.071Z,17.66
2017-05-21T06:20:25.942Z,17.74
2017-05-21T06:20:37.814Z,17.76
2017-05-21T06:20:51.236Z,17.71
2017-05-21T06:21:04.608Z,17.74
2017-05-21T06:21:17.744Z,17.73
2017-05-21T06:21:31.126Z,17.74
2017-05-21T06:21:43.575Z,17.79
2017-05-21T06:21:56.989Z,17.69
2017-05-21T06:22:10.413Z,17.69
2017-05-21T06:22:23.245Z,17.74
2017-05-21T06:22:36.110Z,17.68
2017-05-21T06:22:49.493Z,17.79
2017-05-21T06:23:02.938Z,17.76
2017-05-21T06:23:16.307Z,17.71
2017-05-21T06:23:29.188Z,17.76
2017-05-21T06:23:42.102Z,17.73
2017-05-21T06:23:55.013Z,17.76
2017-05-21T06:24:08.482Z,17.68
2017-05-21T06:24:20.876Z,17.71
2017-05-21T06:24:33.203Z,17.83
2017-05-21T06:24:46.119Z,17.81
2017-05-21T06:24:59.612Z,17.8
2017-05-21T06:25:12.973Z,17.8
2017-05-21T06:25:25.346Z,17.86
2017-05-21T06:25:38.260Z,17.77
2017-05-21T06:25:51.205Z,17.92
2017-05-21T06:26:04.605Z,17.84
2017-05-21T06:26:17.494Z,17.92
2017-05-21T06:26:30.929Z,17.95
2017-05-21T06:26:43.735Z,17.98
2017-05-21T06:26:56.102Z,17.94
2017-05-21T06:27:09.459Z,17.9
2017-05-21T06:27:22.941Z,17.99
2017-05-21T06:27:35.329Z,17.99
2017-05-21T06:27:47.667Z,17.99
2017-05-21T06:28:01.068Z,18.01
2017-05-21T06:28:14.501Z,18.01
2017-05-21T06:28:27.939Z,17.96
2017-05-21T06:28:41.392Z,17.94
2017-05-21T06:28:53.782Z,17.98
2017-05-21T06:29:07.163Z,18.02
2017-05-21T06:29:20.066Z,17.99
2017-05-21T06:29:33.459Z,18.08
2017-05-21T06:29:46.501Z,18.11
2017-05-21T06:30:00.001Z,18.1
2017-05-21T06:30:12.929Z,18.17
2017-05-21T06:30:25.853Z,18.08
2017-05-21T06:30:37.709Z,18.13
2017-05-21T06:30:51.097Z,18.1
2017-05-21T06:31:04.604Z,18.16
2017-05-21T06:31:17.497Z,18.14
2017-05-21T06:31:30.855Z,18.1
2017-05-21T06:31:43.795Z,18.08
2017-05-21T06:31:57.135Z,18.13